createdAt,value
2023-01-08T00:01:10.929Z,39.30
2023-01-08T00:03:42.029Z,41.97
2023-01-08T00:06:13.503Z,37.90
2023-01-08T00:08:41.587Z,40.13
2023-01-08T00:11:09.717Z,39.57
2023-01-08T00:13:38.179Z,37.00
2023-01-08T00:16:09.786Z,50.10
2023-01-08T00:18:37.891Z,39.50
2023-01-08T00:21:06.745Z,37.73
2023-01-08T00:23:35.535Z,44.53
2023-01-08T00:26:04.083Z,41.97
2023-01-08T00:28:32.336Z,41.17
2023-01-08T00:31:03.489Z,40.50
2023-01-08T00:33:33.546Z,42.13
2023-01-08T00:36:01.680Z,38.57
2023-01-08T00:38:30.745Z,40.10
2023-01-08T00:40:58.654Z,48.40
2023-01-08T00:43:26.722Z,40.00
2023-01-08T00:45:54.721Z,44.20
2023-01-08T00:48:23.301Z,47.57
2023-01-08T00:50:53.632Z,45.13
2023-01-08T00:53:22.567Z,44.60
2023-01-08T00:55:50.552Z,40.60
2023-01-08T00:58:18.532Z,52.00
2023-01-08T01:00:46.424Z,49.27
2023-01-08T01:03:14.414Z,45.23
2023-01-08T01:05:42.308Z,52.07
2023-01-08T01:08:11.830Z,44.80
2023-01-08T01:10:40.339Z,44.90
2023-01-08T01:13:08.256Z,49.33
2023-01-08T01:15:36.322Z,41.53
2023-01-08T01:18:04.357Z,43.20
2023-01-08T01:20:32.252Z,37.57
2023-01-08T01:23:00.173Z,38.00
2023-01-08T01:25:29.441Z,40.10
2023-01-08T01:27:57.374Z,41.73
2023-01-08T01:30:25.291Z,53.03
2023-01-08T01:32:53.184Z,48.27
2023-01-08T01:35:21.116Z,48.43
2023-01-08T01:37:49.033Z,52.47
2023-01-08T01:40:16.982Z,51.47
2023-01-08T01:42:46.262Z,45.87
2023-01-08T01:45:21.106Z,50.07
2023-01-08T01:47:53.212Z,50.83
2023-01-08T01:50:26.684Z,45.93
2023-01-08T01:53:00.607Z,49.73
2023-01-08T01:55:29.093Z,47.03
2023-01-08T01:58:06.631Z,49.10
2023-01-08T02:00:35.830Z,48.67
2023-01-08T02:03:05.956Z,43.00
2023-01-08T02:05:42.068Z,50.10
2023-01-08T02:08:13.801Z,43.73
2023-01-08T02:10:49.325Z,44.00
2023-01-08T02:13:24.527Z,51.83
2023-01-08T02:15:57.509Z,48.00
2023-01-08T02:18:32.239Z,56.23
2023-01-08T02:21:07.672Z,55.87
2023-01-08T02:23:44.033Z,54.07
2023-01-08T02:26:22.959Z,50.00
2023-01-08T02:28:54.562Z,54.67
2023-01-08T02:31:25.711Z,57.53
2023-01-08T02:33:54.009Z,60.53
2023-01-08T02:36:33.752Z,55.27
2023-01-08T02:39:31.446Z,60.20
2023-01-08T02:42:10.190Z,60.77
2023-01-08T02:44:55.892Z,62.17
2023-01-08T02:47:29.990Z,55.27
2023-01-08T02:50:08.654Z,55.93
2023-01-08T02:52:42.928Z,57.47
2023-01-08T02:55:11.673Z,62.43
2023-01-08T02:57:41.691Z,62.30
2023-01-08T03:00:11.485Z,62.43
2023-01-08T03:02:42.100Z,71.60
2023-01-08T03:05:19.506Z,54.33
2023-01-08T03:07:47.699Z,62.43
2023-01-08T03:10:16.058Z,68.43
2023-01-08T03:12:54.781Z,59.20
2023-01-08T03:15:28.360Z,62.17
2023-01-08T03:18:00.996Z,60.90
2023-01-08T03:20:29.308Z,59.67
2023-01-08T03:22:59.323Z,57.50
2023-01-08T03:25:31.124Z,50.07
2023-01-08T03:28:04.667Z,57.73
2023-01-08T03:30:33.295Z,56.67
2023-01-08T03:33:02.617Z,57.97
2023-01-08T03:35:32.294Z,55.23
2023-01-08T03:38:07.322Z,51.70
2023-01-08T03:40:40.166Z,53.67
2023-01-08T03:43:09.482Z,57.43
2023-01-08T03:45:39.128Z,48.33
2023-01-08T03:48:08.313Z,49.73
2023-01-08T03:50:36.501Z,65.67
2023-01-08T03:53:04.466Z,52.37
2023-01-08T03:55:32.390Z,62.00
2023-01-08T03:58:00.368Z,53.27
2023-01-08T04:00:29.948Z,40.67
2023-01-08T04:02:57.882Z,46.53
2023-01-08T04:05:26.095Z,49.83
2023-01-08T04:07:56.576Z,52.03
2023-01-08T04:10:24.663Z,46.47
2023-01-08T04:12:52.872Z,44.10
2023-01-08T04:15:20.887Z,47.13
2023-01-08T04:17:50.151Z,48.97
2023-01-08T04:20:18.101Z,56.03
2023-01-08T04:22:46.119Z,44.77
2023-01-08T04:25:14.084Z,48.00
2023-01-08T04:27:41.988Z,43.20
2023-01-08T04:30:11.410Z,56.47
2023-01-08T04:32:39.330Z,42.40
2023-01-08T04:35:09.411Z,43.00
2023-01-08T04:37:37.350Z,40.43
2023-01-08T04:40:06.283Z,44.30
2023-01-08T04:42:34.405Z,41.30
2023-01-08T04:45:02.338Z,39.03
2023-01-08T04:47:30.236Z,38.63
2023-01-08T04:49:58.177Z,41.23
2023-01-08T04:52:29.323Z,49.83
2023-01-08T04:54:57.233Z,45.57
2023-01-08T04:57:25.117Z,47.90
2023-01-08T04:59:53.045Z,43.10
2023-01-08T05:02:21.246Z,44.80
2023-01-08T05:04:49.577Z,45.53
2023-01-08T05:07:17.607Z,41.90
2023-01-08T05:09:46.879Z,49.37
2023-01-08T05:12:14.783Z,46.93
2023-01-08T05:14:42.706Z,45.47
2023-01-08T05:17:10.605Z,46.40
2023-01-08T05:19:38.624Z,45.93
2023-01-08T05:22:06.499Z,56.87
2023-01-08T05:24:34.475Z,46.00
2023-01-08T05:27:03.797Z,45.40
2023-01-08T05:29:31.724Z,63.67
2023-01-08T05:31:59.648Z,55.20
2023-01-08T05:34:27.697Z,53.70
2023-01-08T05:36:55.588Z,46.07
2023-01-08T05:39:23.483Z,53.77
2023-01-08T05:41:51.425Z,51.53
2023-01-08T05:44:20.699Z,53.90
2023-01-08T05:46:48.737Z,118.60
2023-01-08T05:49:17.046Z,57.60
2023-01-08T05:51:45.029Z,49.83
2023-01-08T05:54:12.975Z,44.77
2023-01-08T05:56:41.145Z,41.03
2023-01-08T05:59:09.080Z,60.43
2023-01-08T06:01:38.455Z,48.43
2023-01-08T06:04:06.850Z,48.33
2023-01-08T06:06:34.893Z,42.37
2023-01-08T06:09:02.782Z,45.60
2023-01-08T06:11:30.856Z,48.90
2023-01-08T06:13:59.843Z,46.50
2023-01-08T06:16:27.770Z,51.27
2023-01-08T06:18:57.027Z,48.70
2023-01-08T06:21:24.944Z,50.23
2023-01-08T06:23:52.818Z,47.27
2023-01-08T06:26:20.739Z,52.77
2023-01-08T06:28:48.614Z,50.80
2023-01-08T06:31:16.594Z,51.50
2023-01-08T06:33:44.970Z,59.30
2023-01-08T06:36:14.254Z,59.87
2023-01-08T06:38:42.185Z,69.03
2023-01-08T06:41:11.732Z,71.70
2023-01-08T06:43:40.551Z,59.50
2023-01-08T06:46:09.297Z,61.50
2023-01-08T06:48:37.408Z,73.20
2023-01-08T06:51:06.256Z,70.80
2023-01-08T06:53:35.564Z,66.97
2023-01-08T06:56:04.498Z,59.43
2023-01-08T06:58:32.471Z,81.63
2023-01-08T07:01:00.481Z,66.33
2023-01-08T07:03:28.578Z,56.20
2023-01-08T07:05:56.830Z,61.50
2023-01-08T07:08:24.792Z,68.10
2023-01-08T07:10:54.058Z,63.73
2023-01-08T07:13:23.820Z,61.90
2023-01-08T07:15:51.853Z,76.77
2023-01-08T07:18:19.998Z,71.40
2023-01-08T07:20:49.457Z,79.23
2023-01-08T07:23:17.575Z,76.43
2023-01-08T07:25:45.466Z,76.57
2023-01-08T07:28:14.867Z,85.03
2023-01-08T07:30:43.211Z,68.80
2023-01-08T07:33:11.219Z,67.57
2023-01-08T07:35:39.224Z,66.87
2023-01-08T07:38:07.167Z,71.77
2023-01-08T07:40:36.871Z,55.50
2023-01-08T07:43:06.701Z,79.30
2023-01-08T07:45:36.065Z,62.03
2023-01-08T07:48:04.041Z,60.73
2023-01-08T07:50:32.252Z,79.60
2023-01-08T07:53:00.598Z,54.10
2023-01-08T07:55:30.014Z,53.90
2023-01-08T07:57:57.993Z,89.43
2023-01-08T08:00:26.211Z,65.03
2023-01-08T08:02:55.711Z,77.90
2023-01-08T08:05:25.921Z,68.80
2023-01-08T08:07:54.043Z,56.97
2023-01-08T08:10:22.094Z,56.07
2023-01-08T08:12:50.013Z,71.10
2023-01-08T08:15:18.116Z,75.50
2023-01-08T08:17:47.127Z,76.60
2023-01-08T08:20:16.970Z,68.10
2023-01-08T08:22:45.068Z,60.67
2023-01-08T08:25:15.183Z,59.13
2023-01-08T08:27:43.460Z,74.20
2023-01-08T08:30:13.273Z,59.47
2023-01-08T08:32:41.454Z,84.17
2023-01-08T08:35:10.432Z,76.00
2023-01-08T08:37:39.724Z,83.83
2023-01-08T08:40:09.105Z,88.57
2023-01-08T08:42:37.120Z,93.57
2023-01-08T08:45:06.160Z,105.27
2023-01-08T08:47:37.218Z,106.73
2023-01-08T08:50:06.002Z,107.43
2023-01-08T08:52:34.730Z,94.27
2023-01-08T08:55:04.658Z,100.30
2023-01-08T08:57:32.614Z,117.80
2023-01-08T09:00:01.469Z,106.90
2023-01-08T09:02:29.989Z,83.50
2023-01-08T09:04:58.026Z,104.37
2023-01-08T09:07:26.307Z,87.10
2023-01-08T09:09:54.300Z,103.97
2023-01-08T09:12:23.788Z,79.73
2023-01-08T09:14:51.901Z,102.47
2023-01-08T09:17:21.377Z,109.47
2023-01-08T09:19:49.411Z,113.43
2023-01-08T09:22:17.367Z,95.93
2023-01-08T09:24:45.275Z,88.30
2023-01-08T09:27:13.299Z,105.47
2023-01-08T09:29:42.600Z,117.47
2023-01-08T09:32:10.905Z,103.10
2023-01-08T09:34:38.891Z,103.90
2023-01-08T09:37:07.559Z,83.73
2023-01-08T09:39:37.040Z,154.40
2023-01-08T09:42:06.870Z,94.93
2023-01-08T09:44:38.873Z,113.43
2023-01-08T09:47:17.857Z,83.17
2023-01-08T09:49:47.792Z,90.80
2023-01-08T09:52:16.590Z,104.50
2023-01-08T09:54:44.664Z,98.50
2023-01-08T09:57:16.955Z,86.83
2023-01-08T09:59:47.832Z,100.27
2023-01-08T10:02:20.350Z,117.53
2023-01-08T10:04:54.387Z,86.47
2023-01-08T10:07:24.630Z,87.20
2023-01-08T10:09:53.429Z,95.03
2023-01-08T10:12:26.664Z,81.33
2023-01-08T10:14:56.028Z,103.37
2023-01-08T10:17:30.471Z,100.10
2023-01-08T10:19:58.409Z,140.93
2023-01-08T10:22:32.478Z,142.67
2023-01-08T10:25:08.086Z,95.60
2023-01-08T10:27:46.578Z,101.43
2023-01-08T10:30:17.969Z,109.17
2023-01-08T10:32:54.432Z,114.77
2023-01-08T10:35:25.443Z,95.13
2023-01-08T10:37:53.531Z,111.13
2023-01-08T10:40:29.413Z,93.73
2023-01-08T10:43:06.631Z,91.47
2023-01-08T10:45:35.021Z,98.93
2023-01-08T10:48:08.019Z,102.10
2023-01-08T10:50:36.407Z,98.40
2023-01-08T10:53:06.594Z,78.77
2023-01-08T10:55:37.406Z,91.57
2023-01-08T10:58:16.288Z,84.57
2023-01-08T11:00:44.531Z,86.70
2023-01-08T11:03:32.115Z,95.87
2023-01-08T11:06:00.326Z,86.30
2023-01-08T11:08:28.309Z,76.97
2023-01-08T11:10:58.291Z,82.83
2023-01-08T11:13:27.003Z,79.97
2023-01-08T11:16:03.686Z,83.43
2023-01-08T11:18:37.813Z,115.47
2023-01-08T11:21:10.791Z,115.37
2023-01-08T11:23:38.806Z,98.83
2023-01-08T11:26:11.800Z,106.30
2023-01-08T11:28:50.385Z,275.23
2023-01-08T11:31:24.438Z,91.77
2023-01-08T11:33:59.525Z,106.43
2023-01-08T11:36:31.394Z,108.90
2023-01-08T11:38:59.364Z,111.90
2023-01-08T11:41:41.187Z,111.90
2023-01-08T11:44:23.098Z,114.80
2023-01-08T11:47:02.983Z,99.60
2023-01-08T11:49:42.834Z,100.43
2023-01-08T11:52:24.909Z,106.20
2023-01-08T11:55:14.416Z,94.57
2023-01-08T11:57:54.599Z,93.60
2023-01-08T12:00:39.234Z,100.33
2023-01-08T12:03:18.029Z,100.20
2023-01-08T12:05:51.094Z,100.50
2023-01-08T12:08:27.955Z,81.43
2023-01-08T12:11:06.798Z,84.07
2023-01-08T12:13:58.465Z,85.43
2023-01-08T12:16:41.552Z,87.27
2023-01-08T12:19:21.000Z,94.90
2023-01-08T12:22:04.940Z,94.00
2023-01-08T12:24:58.344Z,76.10
2023-01-08T12:27:55.979Z,92.10
2023-01-08T12:30:32.804Z,74.10
2023-01-08T12:33:05.113Z,84.70
2023-01-08T12:35:39.345Z,83.63
2023-01-08T12:38:14.494Z,91.23
2023-01-08T12:40:44.901Z,86.03
2023-01-08T12:43:18.567Z,76.17
2023-01-08T12:45:49.685Z,83.77
2023-01-08T12:48:20.915Z,70.30
2023-01-08T12:50:58.459Z,83.37
2023-01-08T12:53:38.665Z,82.47
2023-01-08T12:56:12.187Z,68.90
2023-01-08T12:58:56.791Z,76.23
2023-01-08T13:01:33.728Z,80.70
2023-01-08T13:04:04.234Z,83.93
2023-01-08T13:06:32.284Z,76.43
2023-01-08T13:09:02.078Z,72.67
2023-01-08T13:11:32.429Z,67.07
2023-01-08T13:14:03.287Z,84.30
2023-01-08T13:16:39.427Z,79.80
2023-01-08T13:19:08.794Z,64.40
2023-01-08T13:21:39.006Z,68.63
2023-01-08T13:24:32.655Z,60.17
2023-01-08T13:27:12.762Z,61.77
2023-01-08T13:29:42.936Z,64.20
2023-01-08T13:32:42.716Z,78.60
2023-01-08T13:35:31.159Z,65.43
2023-01-08T13:38:16.950Z,61.00
2023-01-08T13:40:56.602Z,74.57
2023-01-08T13:43:29.703Z,70.33
2023-01-08T13:46:14.165Z,71.03
2023-01-08T13:48:50.599Z,59.00
2023-01-08T13:51:42.416Z,54.60
2023-01-08T13:54:20.680Z,52.10
2023-01-08T13:56:54.998Z,54.37
2023-01-08T13:59:35.047Z,66.30
2023-01-08T14:02:03.321Z,70.93
2023-01-08T14:04:31.899Z,55.20
2023-01-08T14:07:14.478Z,57.87
2023-01-08T14:09:42.572Z,50.23
2023-01-08T14:12:14.240Z,69.20
2023-01-08T14:14:51.811Z,54.77
2023-01-08T14:17:22.452Z,50.00
2023-01-08T14:19:50.922Z,47.07
2023-01-08T14:22:23.474Z,51.50
2023-01-08T14:24:56.554Z,58.33
2023-01-08T14:27:27.782Z,54.73
2023-01-08T14:29:56.298Z,48.13
2023-01-08T14:32:28.117Z,57.57
2023-01-08T14:34:58.565Z,53.07
2023-01-08T14:37:26.625Z,49.43
2023-01-08T14:39:55.309Z,62.80
2023-01-08T14:42:47.162Z,54.37
2023-01-08T14:45:22.552Z,45.60
2023-01-08T14:47:52.498Z,44.93
2023-01-08T14:50:24.662Z,44.93
2023-01-08T14:52:54.091Z,52.37
2023-01-08T14:55:23.768Z,73.23
2023-01-08T14:57:53.793Z,63.50
2023-01-08T15:00:26.274Z,63.97
2023-01-08T15:02:54.601Z,51.37
2023-01-08T15:05:27.707Z,48.20
2023-01-08T15:08:01.823Z,49.17
2023-01-08T15:10:36.437Z,50.27
2023-01-08T15:13:07.458Z,47.93
2023-01-08T15:15:48.285Z,51.70
2023-01-08T15:18:16.344Z,49.57
2023-01-08T15:20:46.147Z,43.20
2023-01-08T15:23:28.105Z,50.50
2023-01-08T15:25:57.528Z,46.00
2023-01-08T15:28:27.944Z,45.37
2023-01-08T15:30:57.948Z,49.57
2023-01-08T15:33:27.237Z,41.20
2023-01-08T15:35:55.325Z,47.80
2023-01-08T15:38:23.919Z,46.47
2023-01-08T15:40:53.157Z,46.73
2023-01-08T15:43:20.400Z,47.33
2023-01-08T15:45:50.047Z,47.77
2023-01-08T15:48:19.371Z,51.63
2023-01-08T15:50:47.334Z,47.53
2023-01-08T15:53:19.137Z,42.43
2023-01-08T15:55:47.206Z,45.47
2023-01-08T15:58:16.168Z,44.63
2023-01-08T16:00:46.130Z,46.13
2023-01-08T16:03:15.312Z,51.57
2023-01-08T16:05:44.666Z,49.50
2023-01-08T16:08:13.158Z,49.60
2023-01-08T16:10:41.366Z,57.97
2023-01-08T16:13:11.858Z,64.33
2023-01-08T16:15:40.577Z,55.23
2023-01-08T16:18:08.484Z,47.50
2023-01-08T16:20:36.569Z,46.50
2023-01-08T16:23:05.847Z,51.43
2023-01-08T16:25:34.146Z,53.27
2023-01-08T16:28:03.878Z,50.33
2023-01-08T16:30:31.861Z,46.50
2023-01-08T16:32:59.771Z,48.27
2023-01-08T16:35:27.736Z,41.53
2023-01-08T16:37:56.454Z,38.80
2023-01-08T16:40:25.943Z,42.80
2023-01-08T16:42:53.878Z,53.30
2023-01-08T16:45:21.814Z,43.00
2023-01-08T16:47:50.017Z,44.80
2023-01-08T16:50:18.074Z,51.40
2023-01-08T16:52:46.036Z,57.07
2023-01-08T16:55:14.198Z,69.53
2023-01-08T16:57:43.746Z,69.80
2023-01-08T17:00:13.250Z,65.43
2023-01-08T17:02:41.237Z,61.70
2023-01-08T17:05:09.724Z,63.17
2023-01-08T17:07:37.652Z,50.77
2023-01-08T17:10:06.662Z,42.53
2023-01-08T17:12:34.588Z,54.87
2023-01-08T17:15:03.964Z,36.97
2023-01-08T17:17:32.095Z,45.67
2023-01-08T17:19:59.980Z,48.10
2023-01-08T17:22:28.090Z,49.40
2023-01-08T17:24:56.023Z,46.43
2023-01-08T17:27:23.992Z,40.40
2023-01-08T17:29:51.919Z,43.03
2023-01-08T17:32:21.601Z,42.53
2023-01-08T17:34:49.572Z,41.03
2023-01-08T17:37:17.576Z,44.17
2023-01-08T17:39:45.646Z,47.47
2023-01-08T17:42:27.496Z,46.80
2023-01-08T17:44:57.409Z,38.83
2023-01-08T17:47:27.779Z,44.43
2023-01-08T17:49:57.332Z,42.10
2023-01-08T17:52:26.808Z,47.90
2023-01-08T17:54:54.922Z,45.80
2023-01-08T17:57:23.094Z,41.30
2023-01-08T17:59:52.291Z,45.17
2023-01-08T18:02:20.507Z,43.07
2023-01-08T18:04:49.974Z,78.80
2023-01-08T18:07:18.148Z,69.90
2023-01-08T18:09:46.305Z,70.67
2023-01-08T18:12:14.524Z,60.77
2023-01-08T18:14:44.042Z,53.10
2023-01-08T18:17:13.107Z,63.87
2023-01-08T18:19:41.192Z,61.30
2023-01-08T18:22:10.757Z,67.13
2023-01-08T18:24:38.786Z,47.23
2023-01-08T18:27:06.761Z,41.47
2023-01-08T18:29:35.168Z,45.70
2023-01-08T18:32:03.196Z,37.27
2023-01-08T18:34:32.091Z,37.17
2023-01-08T18:37:00.159Z,35.30
2023-01-08T18:39:31.117Z,33.87
2023-01-08T18:42:17.132Z,37.43
2023-01-08T18:44:45.302Z,54.17
2023-01-08T18:47:14.832Z,59.27
2023-01-08T18:49:43.147Z,57.87
2023-01-08T18:52:13.924Z,78.60
2023-01-08T18:54:43.792Z,72.07
2023-01-08T18:57:11.937Z,57.50
2023-01-08T18:59:40.047Z,60.50
2023-01-08T19:02:08.635Z,43.17
2023-01-08T19:04:37.119Z,38.27
2023-01-08T19:07:05.207Z,41.53
2023-01-08T19:09:33.125Z,33.10
2023-01-08T19:12:02.427Z,35.00
2023-01-08T19:14:30.351Z,37.57
2023-01-08T19:16:58.592Z,39.37
2023-01-08T19:19:28.090Z,65.20
2023-01-08T19:21:57.107Z,44.63
2023-01-08T19:24:25.074Z,49.17
2023-01-08T19:26:53.267Z,95.53
2023-01-08T19:29:22.545Z,107.00
2023-01-08T19:31:50.781Z,49.43
2023-01-08T19:34:18.765Z,46.43
2023-01-08T19:36:46.726Z,56.87
2023-01-08T19:39:14.712Z,60.60
2023-01-08T19:41:59.988Z,46.83
2023-01-08T19:44:29.369Z,48.50
2023-01-08T19:46:57.293Z,46.60
2023-01-08T19:49:25.607Z,50.43
2023-01-08T19:51:53.698Z,52.20
2023-01-08T19:54:23.682Z,54.37
2023-01-08T19:56:51.612Z,41.30
2023-01-08T19:59:19.555Z,33.97
2023-01-08T20:01:49.070Z,55.53
2023-01-08T20:04:17.116Z,174.83
2023-01-08T20:06:45.137Z,36.27
2023-01-08T20:09:13.264Z,229.57
2023-01-08T20:11:41.547Z,168.60
2023-01-08T20:14:09.453Z,35.10
2023-01-08T20:16:37.548Z,195.87
2023-01-08T20:19:06.976Z,231.13
2023-01-08T20:21:35.624Z,183.90
2023-01-08T20:24:08.541Z,66.70
2023-01-08T20:26:37.487Z,93.40
2023-01-08T20:29:06.209Z,219.30
2023-01-08T20:31:34.902Z,245.63
2023-01-08T20:34:06.082Z,47.60
2023-01-08T20:36:35.973Z,180.27
2023-01-08T20:39:07.345Z,108.23
2023-01-08T20:41:35.761Z,80.87
2023-01-08T20:44:06.506Z,69.83
2023-01-08T20:46:36.786Z,63.20
2023-01-08T20:49:06.831Z,38.83
2023-01-08T20:51:39.740Z,122.93
2023-01-08T20:54:09.647Z,59.17
2023-01-08T20:56:37.945Z,51.40
2023-01-08T20:59:06.103Z,47.50
2023-01-08T21:01:35.763Z,38.43
2023-01-08T21:04:06.116Z,108.10
2023-01-08T21:06:36.084Z,50.13
2023-01-08T21:09:07.590Z,43.47
2023-01-08T21:11:37.099Z,62.73
2023-01-08T21:14:05.517Z,87.27
2023-01-08T21:16:34.751Z,73.20
2023-01-08T21:19:03.521Z,72.33
2023-01-08T21:21:33.810Z,97.80
2023-01-08T21:24:05.188Z,59.43
2023-01-08T21:26:34.351Z,131.67
2023-01-08T21:29:03.754Z,107.53
2023-01-08T21:31:31.750Z,126.13
2023-01-08T21:34:01.373Z,184.97
2023-01-08T21:36:32.051Z,94.90
2023-01-08T21:39:01.705Z,97.10
2023-01-08T21:41:48.871Z,81.10
2023-01-08T21:44:35.902Z,61.57
2023-01-08T21:47:05.404Z,137.73
2023-01-08T21:49:35.746Z,77.50
2023-01-08T21:52:21.144Z,92.33
2023-01-08T21:54:49.147Z,64.77
2023-01-08T21:57:18.501Z,64.60
2023-01-08T21:59:46.443Z,57.47
2023-01-08T22:02:16.244Z,72.00
2023-01-08T22:04:44.625Z,52.40
2023-01-08T22:07:13.026Z,92.67
2023-01-08T22:09:41.451Z,81.57
2023-01-08T22:12:09.701Z,85.83
2023-01-08T22:14:39.186Z,108.57
2023-01-08T22:17:08.363Z,70.20
2023-01-08T22:19:37.788Z,96.97
2023-01-08T22:22:05.793Z,58.50
2023-01-08T22:24:33.972Z,44.27
2023-01-08T22:27:01.869Z,28.23
2023-01-08T22:29:29.783Z,34.77
2023-01-08T22:31:59.107Z,55.43
2023-01-08T22:34:27.402Z,44.43
2023-01-08T22:36:55.280Z,49.40
2023-01-08T22:39:23.183Z,35.37
2023-01-08T22:41:51.135Z,59.67
2023-01-08T22:44:19.040Z,36.60
2023-01-08T22:46:46.964Z,36.03
2023-01-08T22:49:16.535Z,30.17
2023-01-08T22:51:44.468Z,38.97
2023-01-08T22:54:14.464Z,28.80
2023-01-08T22:56:42.403Z,28.33
2023-01-08T22:59:10.297Z,24.57
2023-01-08T23:01:38.259Z,29.40
2023-01-08T23:04:06.453Z,33.40
2023-01-08T23:06:36.029Z,29.33
2023-01-08T23:09:04.011Z,33.30
2023-01-08T23:11:32.712Z,23.30
2023-01-08T23:14:01.458Z,19.87
2023-01-08T23:16:29.403Z,20.60
2023-01-08T23:18:57.846Z,24.97
2023-01-08T23:21:28.378Z,21.97
2023-01-08T23:23:57.871Z,20.17
2023-01-08T23:26:27.507Z,25.00
2023-01-08T23:28:56.757Z,25.77
2023-01-08T23:31:27.525Z,21.53
2023-01-08T23:33:56.128Z,25.00
2023-01-08T23:36:24.077Z,23.70
2023-01-08T23:38:53.438Z,27.57
2023-01-08T23:41:25.917Z,23.57
2023-01-08T23:43:54.736Z,23.00
2023-01-08T23:46:22.650Z,19.70
2023-01-08T23:48:50.905Z,26.10
2023-01-08T23:51:19.040Z,29.83
2023-01-08T23:53:47.585Z,31.50
2023-01-08T23:56:15.727Z,27.07
2023-01-08T23:58:45.712Z,27.47
